sensor_id;sensor_type;location;lat;lon;timestamp;P1;durP1;ratioP1;P2;durP2;ratioP2
5690;SDS011;2870;42.680;23.364;2024-02-28T00:00:04;37.00;;;16.30;;
5690;SDS011;2870;42.680;23.364;2024-02-28T00:02:32;33.47;;;17.00;;
5690;SDS011;2870;42.680;23.364;2024-02-28T00:05:00;36.70;;;15.80;;
5690;SDS011;2870;42.680;23.364;2024-02-28T00:07:27;29.60;;;15.47;;
5690;SDS011;2870;42.680;23.364;2024-02-28T00:09:55;32.70;;;20.30;;
5690;SDS011;2870;42.680;23.364;2024-02-28T00:12:22;33.73;;;17.00;;
5690;SDS011;2870;42.680;23.364;2024-02-28T00:14:51;31.37;;;16.53;;
5690;SDS011;2870;42.680;23.364;2024-02-28T00:17:17;28.03;;;15.27;;
5690;SDS011;2870;42.680;23.364;2024-02-28T00:19:44;33.50;;;17.67;;
5690;SDS011;2870;42.680;23.364;2024-02-28T00:22:12;47.07;;;17.20;;
5690;SDS011;2870;42.680;23.364;2024-02-28T00:24:39;41.37;;;15.60;;
5690;SDS011;2870;42.680;23.364;2024-02-28T00:27:06;34.47;;;15.67;;
5690;SDS011;2870;42.680;23.364;2024-02-28T00:29:33;31.20;;;18.00;;
5690;SDS011;2870;42.680;23.364;2024-02-28T00:32:00;34.43;;;17.20;;
5690;SDS011;2870;42.680;23.364;2024-02-28T00:34:27;33.57;;;18.40;;
5690;SDS011;2870;42.680;23.364;2024-02-28T00:36:54;28.60;;;17.03;;
5690;SDS011;2870;42.680;23.364;2024-02-28T00:39:22;36.00;;;19.80;;
5690;SDS011;2870;42.680;23.364;2024-02-28T00:41:48;31.30;;;18.30;;
5690;SDS011;2870;42.680;23.364;2024-02-28T00:44:15;30.60;;;18.97;;
5690;SDS011;2870;42.680;23.364;2024-02-28T00:46:42;28.40;;;18.00;;
5690;SDS011;2870;42.680;23.364;2024-02-28T00:49:08;32.10;;;18.00;;
5690;SDS011;2870;42.680;23.364;2024-02-28T00:51:35;39.87;;;18.37;;
5690;SDS011;2870;42.680;23.364;2024-02-28T00:54:02;38.23;;;17.97;;
5690;SDS011;2870;42.680;23.364;2024-02-28T00:56:30;35.07;;;19.40;;
5690;SDS011;2870;42.680;23.364;2024-02-28T00:58:57;39.20;;;19.23;;
5690;SDS011;2870;42.680;23.364;2024-02-28T01:01:24;33.77;;;18.53;;
5690;SDS011;2870;42.680;23.364;2024-02-28T01:03:50;47.53;;;20.20;;
5690;SDS011;2870;42.680;23.364;2024-02-28T01:06:17;32.80;;;18.80;;
5690;SDS011;2870;42.680;23.364;2024-02-28T01:08:44;37.33;;;20.30;;
5690;SDS011;2870;42.680;23.364;2024-02-28T01:11:11;44.30;;;22.60;;
5690;SDS011;2870;42.680;23.364;2024-02-28T01:13:39;33.47;;;20.20;;
5690;SDS011;2870;42.680;23.364;2024-02-28T01:16:05;39.80;;;21.03;;
5690;SDS011;2870;42.680;23.364;2024-02-28T01:18:32;34.93;;;21.03;;
5690;SDS011;2870;42.680;23.364;2024-02-28T01:20:59;36.40;;;21.70;;
5690;SDS011;2870;42.680;23.364;2024-02-28T01:23:25;39.30;;;21.10;;
5690;SDS011;2870;42.680;23.364;2024-02-28T01:25:52;41.43;;;22.53;;
5690;SDS011;2870;42.680;23.364;2024-02-28T01:28:19;52.77;;;21.93;;
5690;SDS011;2870;42.680;23.364;2024-02-28T01:30:47;35.70;;;22.10;;
5690;SDS011;2870;42.680;23.364;2024-02-28T01:33:14;35.13;;;21.00;;
5690;SDS011;2870;42.680;23.364;2024-02-28T01:35:41;41.83;;;21.80;;
5690;SDS011;2870;42.680;23.364;2024-02-28T01:38:08;39.50;;;21.73;;
5690;SDS011;2870;42.680;23.364;2024-02-28T01:40:34;47.60;;;22.63;;
5690;SDS011;2870;42.680;23.364;2024-02-28T01:43:04;56.33;;;24.70;;
5690;SDS011;2870;42.680;23.364;2024-02-28T01:45:33;40.37;;;23.07;;
5690;SDS011;2870;42.680;23.364;2024-02-28T01:48:01;42.50;;;22.80;;
5690;SDS011;2870;42.680;23.364;2024-02-28T01:50:30;35.57;;;21.70;;
5690;SDS011;2870;42.680;23.364;2024-02-28T01:52:57;37.70;;;22.30;;
5690;SDS011;2870;42.680;23.364;2024-02-28T01:55:24;43.80;;;23.03;;
5690;SDS011;2870;42.680;23.364;2024-02-28T01:57:51;39.00;;;22.03;;
5690;SDS011;2870;42.680;23.364;2024-02-28T02:00:19;39.90;;;21.93;;
5690;SDS011;2870;42.680;23.364;2024-02-28T02:02:47;40.10;;;21.27;;
5690;SDS011;2870;42.680;23.364;2024-02-28T02:05:16;44.33;;;22.23;;
5690;SDS011;2870;42.680;23.364;2024-02-28T02:07:45;38.27;;;21.47;;
5690;SDS011;2870;42.680;23.364;2024-02-28T02:10:13;45.47;;;22.40;;
5690;SDS011;2870;42.680;23.364;2024-02-28T02:12:40;39.27;;;21.43;;
5690;SDS011;2870;42.680;23.364;2024-02-28T02:15:07;41.37;;;22.20;;
5690;SDS011;2870;42.680;23.364;2024-02-28T02:17:34;33.87;;;21.30;;
5690;SDS011;2870;42.680;23.364;2024-02-28T02:20:01;42.93;;;22.80;;
5690;SDS011;2870;42.680;23.364;2024-02-28T02:22:32;40.37;;;21.57;;
5690;SDS011;2870;42.680;23.364;2024-02-28T02:25:02;39.37;;;22.70;;
5690;SDS011;2870;42.680;23.364;2024-02-28T02:27:29;35.20;;;20.73;;
5690;SDS011;2870;42.680;23.364;2024-02-28T02:29:55;39.63;;;22.10;;
5690;SDS011;2870;42.680;23.364;2024-02-28T02:32:22;35.80;;;21.63;;
5690;SDS011;2870;42.680;23.364;2024-02-28T02:34:49;32.33;;;20.23;;
5690;SDS011;2870;42.680;23.364;2024-02-28T02:37:16;34.30;;;20.80;;
5690;SDS011;2870;42.680;23.364;2024-02-28T02:39:44;39.70;;;21.10;;
5690;SDS011;2870;42.680;23.364;2024-02-28T02:42:10;54.57;;;22.40;;
5690;SDS011;2870;42.680;23.364;2024-02-28T02:44:38;37.07;;;20.77;;
5690;SDS011;2870;42.680;23.364;2024-02-28T02:47:05;34.37;;;19.90;;
5690;SDS011;2870;42.680;23.364;2024-02-28T02:49:32;34.27;;;19.33;;
5690;SDS011;2870;42.680;23.364;2024-02-28T02:51:58;32.47;;;19.00;;
5690;SDS011;2870;42.680;23.364;2024-02-28T02:54:25;50.60;;;21.77;;
5690;SDS011;2870;42.680;23.364;2024-02-28T02:56:53;37.87;;;22.50;;
5690;SDS011;2870;42.680;23.364;2024-02-28T02:59:20;33.13;;;19.97;;
5690;SDS011;2870;42.680;23.364;2024-02-28T03:04:47;34.90;;;20.30;;
5690;SDS011;2870;42.680;23.364;2024-02-28T03:07:13;37.37;;;20.10;;
5690;SDS011;2870;42.680;23.364;2024-02-28T03:09:40;37.17;;;21.40;;
5690;SDS011;2870;42.680;23.364;2024-02-28T03:12:08;35.83;;;20.60;;
5690;SDS011;2870;42.680;23.364;2024-02-28T03:14:36;41.10;;;20.40;;
5690;SDS011;2870;42.680;23.364;2024-02-28T03:17:03;34.77;;;19.97;;
5690;SDS011;2870;42.680;23.364;2024-02-28T03:19:30;32.90;;;18.63;;
5690;SDS011;2870;42.680;23.364;2024-02-28T03:21:57;35.20;;;20.33;;
5690;SDS011;2870;42.680;23.364;2024-02-28T03:24:23;34.90;;;19.67;;
5690;SDS011;2870;42.680;23.364;2024-02-28T03:26:50;36.73;;;20.83;;
5690;SDS011;2870;42.680;23.364;2024-02-28T03:29:18;38.97;;;20.97;;
5690;SDS011;2870;42.680;23.364;2024-02-28T03:31:45;35.00;;;20.43;;
5690;SDS011;2870;42.680;23.364;2024-02-28T03:34:12;33.37;;;19.77;;
5690;SDS011;2870;42.680;23.364;2024-02-28T03:36:39;32.57;;;19.90;;
5690;SDS011;2870;42.680;23.364;2024-02-28T03:39:05;34.87;;;20.47;;
5690;SDS011;2870;42.680;23.364;2024-02-28T03:41:32;33.60;;;20.53;;
5690;SDS011;2870;42.680;23.364;2024-02-28T03:43:59;39.43;;;18.73;;
5690;SDS011;2870;42.680;23.364;2024-02-28T03:46:27;35.23;;;19.10;;
5690;SDS011;2870;42.680;23.364;2024-02-28T03:48:53;39.47;;;20.83;;
5690;SDS011;2870;42.680;23.364;2024-02-28T03:51:20;36.17;;;20.57;;
5690;SDS011;2870;42.680;23.364;2024-02-28T03:53:47;45.60;;;21.10;;
5690;SDS011;2870;42.680;23.364;2024-02-28T03:56:21;34.83;;;20.00;;
5690;SDS011;2870;42.680;23.364;2024-02-28T03:58:48;36.53;;;20.27;;
5690;SDS011;2870;42.680;23.364;2024-02-28T04:01:15;34.93;;;20.00;;
5690;SDS011;2870;42.680;23.364;2024-02-28T04:03:43;36.63;;;20.63;;
5690;SDS011;2870;42.680;23.364;2024-02-28T04:06:10;38.20;;;21.00;;
5690;SDS011;2870;42.680;23.364;2024-02-28T04:08:37;35.57;;;19.80;;
5690;SDS011;2870;42.680;23.364;2024-02-28T04:11:04;35.33;;;20.20;;
5690;SDS011;2870;42.680;23.364;2024-02-28T04:13:30;33.23;;;18.77;;
5690;SDS011;2870;42.680;23.364;2024-02-28T04:15:57;33.83;;;20.50;;
5690;SDS011;2870;42.680;23.364;2024-02-28T04:18:24;38.53;;;19.87;;
5690;SDS011;2870;42.680;23.364;2024-02-28T04:20:52;37.13;;;20.60;;
5690;SDS011;2870;42.680;23.364;2024-02-28T04:23:18;37.20;;;20.67;;
5690;SDS011;2870;42.680;23.364;2024-02-28T04:25:45;35.87;;;19.93;;
5690;SDS011;2870;42.680;23.364;2024-02-28T04:28:12;31.70;;;18.87;;
5690;SDS011;2870;42.680;23.364;2024-02-28T04:30:38;34.70;;;19.07;;
5690;SDS011;2870;42.680;23.364;2024-02-28T04:33:05;50.77;;;20.60;;
5690;SDS011;2870;42.680;23.364;2024-02-28T04:35:32;48.10;;;20.37;;
5690;SDS011;2870;42.680;23.364;2024-02-28T04:38:00;38.83;;;21.03;;
5690;SDS011;2870;42.680;23.364;2024-02-28T04:40:27;34.90;;;21.17;;
5690;SDS011;2870;42.680;23.364;2024-02-28T04:42:53;41.53;;;21.63;;
5690;SDS011;2870;42.680;23.364;2024-02-28T04:45:20;46.73;;;21.77;;
5690;SDS011;2870;42.680;23.364;2024-02-28T04:47:47;40.03;;;20.00;;
5690;SDS011;2870;42.680;23.364;2024-02-28T04:50:16;34.00;;;20.33;;
5690;SDS011;2870;42.680;23.364;2024-02-28T04:52:43;50.63;;;20.60;;
5690;SDS011;2870;42.680;23.364;2024-02-28T04:55:11;44.30;;;21.40;;
5690;SDS011;2870;42.680;23.364;2024-02-28T04:57:38;50.40;;;20.53;;
5690;SDS011;2870;42.680;23.364;2024-02-28T05:00:05;42.73;;;20.93;;
5690;SDS011;2870;42.680;23.364;2024-02-28T05:02:33;40.70;;;20.20;;
5690;SDS011;2870;42.680;23.364;2024-02-28T05:05:00;46.17;;;21.70;;
5690;SDS011;2870;42.680;23.364;2024-02-28T05:07:25;34.07;;;21.57;;
5690;SDS011;2870;42.680;23.364;2024-02-28T05:09:52;41.53;;;22.40;;
5690;SDS011;2870;42.680;23.364;2024-02-28T05:12:20;57.33;;;22.37;;
5690;SDS011;2870;42.680;23.364;2024-02-28T05:14:47;33.17;;;20.00;;
5690;SDS011;2870;42.680;23.364;2024-02-28T05:17:14;40.97;;;21.73;;
5690;SDS011;2870;42.680;23.364;2024-02-28T05:19:42;39.67;;;20.03;;
5690;SDS011;2870;42.680;23.364;2024-02-28T05:22:08;39.70;;;21.27;;
5690;SDS011;2870;42.680;23.364;2024-02-28T05:24:36;35.57;;;21.17;;
5690;SDS011;2870;42.680;23.364;2024-02-28T05:27:03;49.57;;;21.00;;
5690;SDS011;2870;42.680;23.364;2024-02-28T05:29:31;39.03;;;20.80;;
5690;SDS011;2870;42.680;23.364;2024-02-28T05:31:58;44.03;;;23.43;;
5690;SDS011;2870;42.680;23.364;2024-02-28T05:34:24;45.50;;;21.37;;
5690;SDS011;2870;42.680;23.364;2024-02-28T05:36:51;40.63;;;21.30;;
5690;SDS011;2870;42.680;23.364;2024-02-28T05:39:18;45.57;;;22.07;;
5690;SDS011;2870;42.680;23.364;2024-02-28T05:41:45;51.80;;;21.20;;
5690;SDS011;2870;42.680;23.364;2024-02-28T05:44:12;45.47;;;22.67;;
5690;SDS011;2870;42.680;23.364;2024-02-28T05:46:40;42.17;;;21.67;;
5690;SDS011;2870;42.680;23.364;2024-02-28T05:49:07;35.67;;;21.47;;
5690;SDS011;2870;42.680;23.364;2024-02-28T05:51:33;39.77;;;22.87;;
5690;SDS011;2870;42.680;23.364;2024-02-28T05:54:01;38.47;;;22.60;;
5690;SDS011;2870;42.680;23.364;2024-02-28T05:56:28;43.07;;;23.83;;
5690;SDS011;2870;42.680;23.364;2024-02-28T05:58:55;42.40;;;22.33;;
5690;SDS011;2870;42.680;23.364;2024-02-28T06:01:22;46.27;;;23.00;;
5690;SDS011;2870;42.680;23.364;2024-02-28T06:03:50;41.30;;;24.20;;
5690;SDS011;2870;42.680;23.364;2024-02-28T06:06:17;35.27;;;22.00;;
5690;SDS011;2870;42.680;23.364;2024-02-28T06:08:44;57.50;;;22.10;;
5690;SDS011;2870;42.680;23.364;2024-02-28T06:11:11;49.70;;;23.83;;
5690;SDS011;2870;42.680;23.364;2024-02-28T06:13:40;40.87;;;23.10;;
5690;SDS011;2870;42.680;23.364;2024-02-28T06:16:07;52.43;;;26.07;;
5690;SDS011;2870;42.680;23.364;2024-02-28T06:18:34;64.33;;;26.43;;
5690;SDS011;2870;42.680;23.364;2024-02-28T06:21:02;43.07;;;24.17;;
5690;SDS011;2870;42.680;23.364;2024-02-28T06:23:29;42.03;;;25.20;;
5690;SDS011;2870;42.680;23.364;2024-02-28T06:25:56;52.63;;;25.90;;
5690;SDS011;2870;42.680;23.364;2024-02-28T06:28:22;44.53;;;24.73;;
5690;SDS011;2870;42.680;23.364;2024-02-28T06:30:49;41.63;;;23.33;;
5690;SDS011;2870;42.680;23.364;2024-02-28T06:33:16;43.57;;;22.70;;
5690;SDS011;2870;42.680;23.364;2024-02-28T06:35:43;40.90;;;22.10;;
5690;SDS011;2870;42.680;23.364;2024-02-28T06:38:11;41.00;;;21.90;;
5690;SDS011;2870;42.680;23.364;2024-02-28T06:40:38;40.60;;;22.23;;
5690;SDS011;2870;42.680;23.364;2024-02-28T06:43:05;35.70;;;21.60;;
5690;SDS011;2870;42.680;23.364;2024-02-28T06:45:32;37.70;;;21.60;;
5690;SDS011;2870;42.680;23.364;2024-02-28T06:47:59;35.37;;;21.63;;
5690;SDS011;2870;42.680;23.364;2024-02-28T06:50:26;44.67;;;23.03;;
5690;SDS011;2870;42.680;23.364;2024-02-28T06:52:52;37.87;;;20.93;;
5690;SDS011;2870;42.680;23.364;2024-02-28T06:55:21;35.23;;;20.60;;
5690;SDS011;2870;42.680;23.364;2024-02-28T06:57:47;35.83;;;22.10;;
5690;SDS011;2870;42.680;23.364;2024-02-28T07:00:14;36.87;;;20.27;;
5690;SDS011;2870;42.680;23.364;2024-02-28T07:02:41;37.53;;;20.30;;
5690;SDS011;2870;42.680;23.364;2024-02-28T07:05:08;32.60;;;20.73;;
5690;SDS011;2870;42.680;23.364;2024-02-28T07:07:35;35.13;;;20.60;;
5690;SDS011;2870;42.680;23.364;2024-02-28T07:10:02;47.40;;;21.13;;
5690;SDS011;2870;42.680;23.364;2024-02-28T07:12:30;45.30;;;22.23;;
5690;SDS011;2870;42.680;23.364;2024-02-28T07:14:57;32.83;;;20.20;;
5690;SDS011;2870;42.680;23.364;2024-02-28T07:17:24;37.43;;;20.47;;
5690;SDS011;2870;42.680;23.364;2024-02-28T07:19:51;35.77;;;21.30;;
5690;SDS011;2870;42.680;23.364;2024-02-28T07:22:18;39.43;;;20.40;;
5690;SDS011;2870;42.680;23.364;2024-02-28T07:24:44;59.80;;;21.17;;
5690;SDS011;2870;42.680;23.364;2024-02-28T07:27:11;38.53;;;19.97;;
5690;SDS011;2870;42.680;23.364;2024-02-28T07:29:39;39.43;;;22.30;;
5690;SDS011;2870;42.680;23.364;2024-02-28T07:32:06;37.30;;;21.73;;
5690;SDS011;2870;42.680;23.364;2024-02-28T07:34:33;41.20;;;21.80;;
5690;SDS011;2870;42.680;23.364;2024-02-28T07:37:00;39.23;;;21.30;;
5690;SDS011;2870;42.680;23.364;2024-02-28T07:39:26;40.23;;;21.57;;
5690;SDS011;2870;42.680;23.364;2024-02-28T07:41:53;37.20;;;21.30;;
5690;SDS011;2870;42.680;23.364;2024-02-28T07:44:20;37.57;;;21.47;;
5690;SDS011;2870;42.680;23.364;2024-02-28T07:46:48;41.67;;;21.67;;
5690;SDS011;2870;42.680;23.364;2024-02-28T07:49:15;37.43;;;21.27;;
5690;SDS011;2870;42.680;23.364;2024-02-28T07:51:42;44.10;;;21.10;;
5690;SDS011;2870;42.680;23.364;2024-02-28T07:54:09;36.87;;;21.80;;
5690;SDS011;2870;42.680;23.364;2024-02-28T07:56:35;35.33;;;21.00;;
5690;SDS011;2870;42.680;23.364;2024-02-28T07:59:02;50.20;;;23.20;;
5690;SDS011;2870;42.680;23.364;2024-02-28T08:01:29;38.97;;;23.13;;
5690;SDS011;2870;42.680;23.364;2024-02-28T08:03:58;42.93;;;21.90;;
5690;SDS011;2870;42.680;23.364;2024-02-28T08:06:25;44.73;;;22.20;;
5690;SDS011;2870;42.680;23.364;2024-02-28T08:08:52;36.80;;;21.77;;
5690;SDS011;2870;42.680;23.364;2024-02-28T08:11:18;36.87;;;21.07;;
5690;SDS011;2870;42.680;23.364;2024-02-28T08:13:45;39.57;;;22.80;;
5690;SDS011;2870;42.680;23.364;2024-02-28T08:16:12;44.40;;;24.30;;
5690;SDS011;2870;42.680;23.364;2024-02-28T08:18:38;42.03;;;21.90;;
5690;SDS011;2870;42.680;23.364;2024-02-28T08:21:06;43.93;;;21.87;;
5690;SDS011;2870;42.680;23.364;2024-02-28T08:23:34;49.47;;;22.37;;
5690;SDS011;2870;42.680;23.364;2024-02-28T08:26:01;36.40;;;21.60;;
5690;SDS011;2870;42.680;23.364;2024-02-28T08:28:28;39.87;;;20.67;;
5690;SDS011;2870;42.680;23.364;2024-02-28T08:30:55;36.80;;;20.90;;
5690;SDS011;2870;42.680;23.364;2024-02-28T08:33:22;40.90;;;21.90;;
5690;SDS011;2870;42.680;23.364;2024-02-28T08:35:49;47.20;;;19.00;;
5690;SDS011;2870;42.680;23.364;2024-02-28T08:38:17;41.23;;;21.90;;
5690;SDS011;2870;42.680;23.364;2024-02-28T08:40:44;42.13;;;20.93;;
5690;SDS011;2870;42.680;23.364;2024-02-28T08:43:12;39.77;;;20.50;;
5690;SDS011;2870;42.680;23.364;2024-02-28T08:45:39;37.73;;;22.50;;
5690;SDS011;2870;42.680;23.364;2024-02-28T08:48:06;32.50;;;20.67;;
5690;SDS011;2870;42.680;23.364;2024-02-28T08:50:33;35.43;;;21.13;;
5690;SDS011;2870;42.680;23.364;2024-02-28T08:53:00;35.53;;;20.27;;
5690;SDS011;2870;42.680;23.364;2024-02-28T08:55:29;38.20;;;20.00;;
5690;SDS011;2870;42.680;23.364;2024-02-28T08:57:56;37.03;;;19.70;;
5690;SDS011;2870;42.680;23.364;2024-02-28T09:00:22;37.50;;;19.73;;
5690;SDS011;2870;42.680;23.364;2024-02-28T09:02:49;34.07;;;20.70;;
5690;SDS011;2870;42.680;23.364;2024-02-28T09:05:16;37.37;;;19.60;;
5690;SDS011;2870;42.680;23.364;2024-02-28T09:07:43;34.63;;;20.93;;
5690;SDS011;2870;42.680;23.364;2024-02-28T09:10:11;40.53;;;19.57;;
5690;SDS011;2870;42.680;23.364;2024-02-28T09:12:39;38.63;;;16.70;;
5690;SDS011;2870;42.680;23.364;2024-02-28T09:15:06;30.73;;;17.17;;
5690;SDS011;2870;42.680;23.364;2024-02-28T09:17:33;32.87;;;16.90;;
5690;SDS011;2870;42.680;23.364;2024-02-28T09:20:00;28.93;;;16.00;;
5690;SDS011;2870;42.680;23.364;2024-02-28T09:22:29;30.20;;;17.17;;
5690;SDS011;2870;42.680;23.364;2024-02-28T09:24:56;27.73;;;16.60;;
5690;SDS011;2870;42.680;23.364;2024-02-28T09:27:22;36.00;;;16.63;;
5690;SDS011;2870;42.680;23.364;2024-02-28T09:29:51;27.57;;;16.40;;
5690;SDS011;2870;42.680;23.364;2024-02-28T09:32:17;27.57;;;16.97;;
5690;SDS011;2870;42.680;23.364;2024-02-28T09:34:44;29.27;;;17.77;;
5690;SDS011;2870;42.680;23.364;2024-02-28T09:37:11;38.13;;;17.67;;
5690;SDS011;2870;42.680;23.364;2024-02-28T09:39:38;27.87;;;15.67;;
5690;SDS011;2870;42.680;23.364;2024-02-28T09:42:05;24.40;;;14.67;;
5690;SDS011;2870;42.680;23.364;2024-02-28T09:44:33;29.83;;;16.47;;
5690;SDS011;2870;42.680;23.364;2024-02-28T09:47:02;33.17;;;16.77;;
5690;SDS011;2870;42.680;23.364;2024-02-28T09:49:32;29.90;;;15.87;;
5690;SDS011;2870;42.680;23.364;2024-02-28T09:52:01;28.80;;;17.80;;
5690;SDS011;2870;42.680;23.364;2024-02-28T09:54:29;27.67;;;15.20;;
5690;SDS011;2870;42.680;23.364;2024-02-28T09:56:56;21.60;;;13.97;;
5690;SDS011;2870;42.680;23.364;2024-02-28T09:59:23;27.60;;;15.30;;
5690;SDS011;2870;42.680;23.364;2024-02-28T10:01:52;25.03;;;15.20;;
5690;SDS011;2870;42.680;23.364;2024-02-28T10:04:23;29.33;;;13.70;;
5690;SDS011;2870;42.680;23.364;2024-02-28T10:06:53;32.93;;;14.20;;
5690;SDS011;2870;42.680;23.364;2024-02-28T10:09:19;30.13;;;15.40;;
5690;SDS011;2870;42.680;23.364;2024-02-28T10:11:46;24.30;;;15.10;;
5690;SDS011;2870;42.680;23.364;2024-02-28T10:14:16;23.57;;;14.23;;
5690;SDS011;2870;42.680;23.364;2024-02-28T10:16:43;32.03;;;13.53;;
5690;SDS011;2870;42.680;23.364;2024-02-28T10:19:10;25.60;;;15.23;;
5690;SDS011;2870;42.680;23.364;2024-02-28T10:21:39;31.97;;;17.00;;
5690;SDS011;2870;42.680;23.364;2024-02-28T10:24:06;38.13;;;17.60;;
5690;SDS011;2870;42.680;23.364;2024-02-28T10:26:32;37.17;;;18.60;;
5690;SDS011;2870;42.680;23.364;2024-02-28T10:29:08;31.23;;;15.63;;
5690;SDS011;2870;42.680;23.364;2024-02-28T10:31:35;28.10;;;15.50;;
5690;SDS011;2870;42.680;23.364;2024-02-28T10:34:01;25.27;;;14.50;;
5690;SDS011;2870;42.680;23.364;2024-02-28T10:36:31;30.50;;;15.57;;
5690;SDS011;2870;42.680;23.364;2024-02-28T10:39:00;32.43;;;16.27;;
5690;SDS011;2870;42.680;23.364;2024-02-28T10:41:28;30.03;;;16.97;;
5690;SDS011;2870;42.680;23.364;2024-02-28T10:43:56;32.37;;;17.50;;
5690;SDS011;2870;42.680;23.364;2024-02-28T10:46:23;31.70;;;17.37;;
5690;SDS011;2870;42.680;23.364;2024-02-28T10:48:50;29.13;;;14.40;;
5690;SDS011;2870;42.680;23.364;2024-02-28T10:51:20;29.30;;;14.33;;
5690;SDS011;2870;42.680;23.364;2024-02-28T10:53:50;27.87;;;15.30;;
5690;SDS011;2870;42.680;23.364;2024-02-28T10:56:29;31.73;;;13.97;;
5690;SDS011;2870;42.680;23.364;2024-02-28T10:58:56;25.80;;;13.60;;
5690;SDS011;2870;42.680;23.364;2024-02-28T11:01:27;33.53;;;15.07;;
5690;SDS011;2870;42.680;23.364;2024-02-28T11:03:54;26.43;;;15.00;;
5690;SDS011;2870;42.680;23.364;2024-02-28T11:06:22;26.10;;;14.93;;
5690;SDS011;2870;42.680;23.364;2024-02-28T11:08:49;25.77;;;13.37;;
5690;SDS011;2870;42.680;23.364;2024-02-28T11:11:19;25.40;;;13.23;;
5690;SDS011;2870;42.680;23.364;2024-02-28T11:13:54;26.73;;;14.40;;
5690;SDS011;2870;42.680;23.364;2024-02-28T11:16:28;26.13;;;12.93;;
5690;SDS011;2870;42.680;23.364;2024-02-28T11:18:55;23.83;;;12.60;;
5690;SDS011;2870;42.680;23.364;2024-02-28T11:21:23;23.57;;;12.20;;
5690;SDS011;2870;42.680;23.364;2024-02-28T11:23:51;23.00;;;13.10;;
5690;SDS011;2870;42.680;23.364;2024-02-28T11:26:17;29.70;;;12.60;;
5690;SDS011;2870;42.680;23.364;2024-02-28T11:28:45;23.60;;;12.50;;
5690;SDS011;2870;42.680;23.364;2024-02-28T11:31:13;21.93;;;11.50;;
5690;SDS011;2870;42.680;23.364;2024-02-28T11:33:40;20.50;;;11.73;;
5690;SDS011;2870;42.680;23.364;2024-02-28T11:36:07;22.57;;;12.10;;
5690;SDS011;2870;42.680;23.364;2024-02-28T11:38:34;22.63;;;12.03;;
5690;SDS011;2870;42.680;23.364;2024-02-28T11:41:03;22.37;;;10.93;;
5690;SDS011;2870;42.680;23.364;2024-02-28T11:43:30;25.83;;;11.40;;
5690;SDS011;2870;42.680;23.364;2024-02-28T11:45:57;20.37;;;11.40;;
5690;SDS011;2870;42.680;23.364;2024-02-28T11:48:25;18.53;;;10.90;;
5690;SDS011;2870;42.680;23.364;2024-02-28T11:50:53;24.50;;;11.67;;
5690;SDS011;2870;42.680;23.364;2024-02-28T11:53:20;21.10;;;10.27;;
5690;SDS011;2870;42.680;23.364;2024-02-28T11:55:48;22.30;;;10.40;;
5690;SDS011;2870;42.680;23.364;2024-02-28T11:58:15;19.57;;;11.40;;
5690;SDS011;2870;42.680;23.364;2024-02-28T12:00:47;22.00;;;9.83;;
5690;SDS011;2870;42.680;23.364;2024-02-28T12:03:14;20.33;;;10.73;;
5690;SDS011;2870;42.680;23.364;2024-02-28T12:05:47;19.97;;;10.43;;
5690;SDS011;2870;42.680;23.364;2024-02-28T12:08:14;21.40;;;11.47;;
5690;SDS011;2870;42.680;23.364;2024-02-28T12:10:43;18.70;;;9.47;;
5690;SDS011;2870;42.680;23.364;2024-02-28T12:13:10;26.40;;;10.73;;
5690;SDS011;2870;42.680;23.364;2024-02-28T12:15:38;16.67;;;9.53;;
5690;SDS011;2870;42.680;23.364;2024-02-28T12:18:07;20.27;;;10.60;;
5690;SDS011;2870;42.680;23.364;2024-02-28T12:20:35;24.87;;;10.97;;
5690;SDS011;2870;42.680;23.364;2024-02-28T12:23:04;19.37;;;10.47;;
5690;SDS011;2870;42.680;23.364;2024-02-28T12:25:33;20.30;;;11.00;;
5690;SDS011;2870;42.680;23.364;2024-02-28T12:28:00;23.23;;;11.93;;
5690;SDS011;2870;42.680;23.364;2024-02-28T12:30:27;22.07;;;10.40;;
5690;SDS011;2870;42.680;23.364;2024-02-28T12:32:54;18.77;;;11.27;;
5690;SDS011;2870;42.680;23.364;2024-02-28T12:35:21;25.63;;;11.47;;
5690;SDS011;2870;42.680;23.364;2024-02-28T12:37:47;25.43;;;11.37;;
5690;SDS011;2870;42.680;23.364;2024-02-28T12:40:17;20.73;;;10.63;;
5690;SDS011;2870;42.680;23.364;2024-02-28T12:42:44;16.33;;;10.10;;
5690;SDS011;2870;42.680;23.364;2024-02-28T12:45:10;19.63;;;9.17;;
5690;SDS011;2870;42.680;23.364;2024-02-28T12:47:38;14.90;;;9.20;;
5690;SDS011;2870;42.680;23.364;2024-02-28T12:50:05;14.30;;;8.97;;
5690;SDS011;2870;42.680;23.364;2024-02-28T12:52:34;18.63;;;9.70;;
5690;SDS011;2870;42.680;23.364;2024-02-28T12:55:01;18.00;;;9.03;;
5690;SDS011;2870;42.680;23.364;2024-02-28T12:57:29;20.73;;;9.83;;
5690;SDS011;2870;42.680;23.364;2024-02-28T12:59:56;20.97;;;8.57;;
5690;SDS011;2870;42.680;23.364;2024-02-28T13:02:23;21.60;;;9.00;;
5690;SDS011;2870;42.680;23.364;2024-02-28T13:04:49;16.60;;;8.30;;
5690;SDS011;2870;42.680;23.364;2024-02-28T13:07:17;17.83;;;8.60;;
5690;SDS011;2870;42.680;23.364;2024-02-28T13:09:47;14.67;;;8.63;;
5690;SDS011;2870;42.680;23.364;2024-02-28T13:12:14;16.40;;;7.93;;
5690;SDS011;2870;42.680;23.364;2024-02-28T13:14:42;17.30;;;7.90;;
5690;SDS011;2870;42.680;23.364;2024-02-28T13:17:09;18.57;;;7.93;;
5690;SDS011;2870;42.680;23.364;2024-02-28T13:19:36;13.80;;;7.20;;
5690;SDS011;2870;42.680;23.364;2024-02-28T13:22:02;14.33;;;8.50;;
5690;SDS011;2870;42.680;23.364;2024-02-28T13:24:29;17.43;;;8.57;;
5690;SDS011;2870;42.680;23.364;2024-02-28T13:26:56;13.97;;;8.47;;
5690;SDS011;2870;42.680;23.364;2024-02-28T13:29:23;16.63;;;8.70;;
5690;SDS011;2870;42.680;23.364;2024-02-28T13:31:51;63.60;;;11.00;;
5690;SDS011;2870;42.680;23.364;2024-02-28T13:34:18;16.30;;;8.63;;
5690;SDS011;2870;42.680;23.364;2024-02-28T13:36:44;16.23;;;8.17;;
5690;SDS011;2870;42.680;23.364;2024-02-28T13:39:12;15.87;;;8.43;;
5690;SDS011;2870;42.680;23.364;2024-02-28T13:41:38;15.23;;;7.57;;
5690;SDS011;2870;42.680;23.364;2024-02-28T13:44:05;14.03;;;7.60;;
5690;SDS011;2870;42.680;23.364;2024-02-28T13:46:32;19.10;;;7.83;;
5690;SDS011;2870;42.680;23.364;2024-02-28T13:49:00;15.03;;;6.80;;
5690;SDS011;2870;42.680;23.364;2024-02-28T13:51:29;17.43;;;7.83;;
5690;SDS011;2870;42.680;23.364;2024-02-28T13:53:55;23.27;;;7.80;;
5690;SDS011;2870;42.680;23.364;2024-02-28T13:56:22;15.10;;;7.90;;
5690;SDS011;2870;42.680;23.364;2024-02-28T13:58:49;17.07;;;6.60;;
5690;SDS011;2870;42.680;23.364;2024-02-28T14:01:15;16.40;;;6.73;;
5690;SDS011;2870;42.680;23.364;2024-02-28T14:03:44;17.23;;;8.57;;
5690;SDS011;2870;42.680;23.364;2024-02-28T14:06:12;15.57;;;7.87;;
5690;SDS011;2870;42.680;23.364;2024-02-28T14:08:39;13.30;;;7.63;;
5690;SDS011;2870;42.680;23.364;2024-02-28T14:11:05;12.40;;;6.60;;
5690;SDS011;2870;42.680;23.364;2024-02-28T14:13:32;13.70;;;7.70;;
5690;SDS011;2870;42.680;23.364;2024-02-28T14:15:59;16.93;;;8.33;;
5690;SDS011;2870;42.680;23.364;2024-02-28T14:18:27;23.80;;;7.60;;
5690;SDS011;2870;42.680;23.364;2024-02-28T14:20:53;21.33;;;8.23;;
5690;SDS011;2870;42.680;23.364;2024-02-28T14:23:21;15.23;;;7.50;;
5690;SDS011;2870;42.680;23.364;2024-02-28T14:25:48;12.00;;;7.47;;
5690;SDS011;2870;42.680;23.364;2024-02-28T14:28:15;18.13;;;7.80;;
5690;SDS011;2870;42.680;23.364;2024-02-28T14:30:44;17.00;;;7.47;;
5690;SDS011;2870;42.680;23.364;2024-02-28T14:33:14;17.50;;;7.83;;
5690;SDS011;2870;42.680;23.364;2024-02-28T14:35:40;14.87;;;7.40;;
5690;SDS011;2870;42.680;23.364;2024-02-28T14:38:07;14.03;;;6.70;;